sensor_id;sensor_type;location;lat;lon;timestamp;pressure;altitude;pressure_sealevel;temperature;humidity
46087;BME280;31824;49.648;8.640;2023-01-31T00:02:27;101295.31;;;3.64;100.00
46087;BME280;31824;49.648;8.640;2023-01-31T00:05:29;101290.13;;;3.64;100.00
46087;BME280;31824;49.648;8.640;2023-01-31T00:08:30;101288.91;;;3.68;100.00
46087;BME280;31824;49.648;8.640;2023-01-31T00:11:32;101283.69;;;3.68;100.00
46087;BME280;31824;49.648;8.640;2023-01-31T00:14:35;101286.91;;;3.60;100.00
46087;BME280;31824;49.648;8.640;2023-01-31T00:17:39;101288.28;;;3.63;100.00
46087;BME280;31824;49.648;8.640;2023-01-31T00:20:40;101282.84;;;3.62;100.00
46087;BME280;31824;49.648;8.640;2023-01-31T00:23:43;101285.03;;;3.59;100.00
46087;BME280;31824;49.648;8.640;2023-01-31T00:26:45;101272.03;;;3.59;100.00
46087;BME280;31824;49.648;8.640;2023-01-31T00:29:49;101282.22;;;3.57;100.00
46087;BME280;31824;49.648;8.640;2023-01-31T00:32:52;101290.75;;;3.56;100.00
46087;BME280;31824;49.648;8.640;2023-01-31T00:35:53;101287.31;;;3.50;100.00
46087;BME280;31824;49.648;8.640;2023-01-31T00:38:57;101295.00;;;3.55;100.00
46087;BME280;31824;49.648;8.640;2023-01-31T00:41:59;101292.63;;;3.57;100.00
46087;BME280;31824;49.648;8.640;2023-01-31T00:45:02;101290.22;;;3.59;100.00
46087;BME280;31824;49.648;8.640;2023-01-31T00:48:05;101280.03;;;3.60;100.00
46087;BME280;31824;49.648;8.640;2023-01-31T00:51:07;101290.03;;;3.57;100.00
46087;BME280;31824;49.648;8.640;2023-01-31T00:54:09;101281.22;;;3.62;100.00
46087;BME280;31824;49.648;8.640;2023-01-31T00:57:11;101283.16;;;3.58;100.00
46087;BME280;31824;49.648;8.640;2023-01-31T01:00:14;101280.50;;;3.63;100.00
46087;BME280;31824;49.648;8.640;2023-01-31T01:03:17;101278.81;;;3.51;100.00
46087;BME280;31824;49.648;8.640;2023-01-31T01:06:19;101274.53;;;3.51;100.00
46087;BME280;31824;49.648;8.640;2023-01-31T01:09:21;101283.25;;;3.52;100.00
46087;BME280;31824;49.648;8.640;2023-01-31T01:12:23;101284.63;;;3.55;100.00
46087;BME280;31824;49.648;8.640;2023-01-31T01:15:25;101292.63;;;3.57;100.00
46087;BME280;31824;49.648;8.640;2023-01-31T01:18:28;101286.50;;;3.57;100.00
46087;BME280;31824;49.648;8.640;2023-01-31T01:21:31;101293.53;;;3.58;100.00
46087;BME280;31824;49.648;8.640;2023-01-31T01:24:39;101308.00;;;3.55;100.00
46087;BME280;31824;49.648;8.640;2023-01-31T01:27:43;101299.59;;;3.51;100.00
46087;BME280;31824;49.648;8.640;2023-01-31T01:30:45;101305.66;;;3.38;100.00
46087;BME280;31824;49.648;8.640;2023-01-31T01:33:48;101303.38;;;3.34;100.00
46087;BME280;31824;49.648;8.640;2023-01-31T01:36:50;101296.94;;;3.25;100.00
46087;BME280;31824;49.648;8.640;2023-01-31T01:39:52;101299.16;;;3.16;100.00
46087;BME280;31824;49.648;8.640;2023-01-31T01:42:53;101295.94;;;3.12;100.00
46087;BME280;31824;49.648;8.640;2023-01-31T01:45:56;101311.31;;;3.10;100.00
46087;BME280;31824;49.648;8.640;2023-01-31T01:49:03;101305.16;;;3.10;100.00
46087;BME280;31824;49.648;8.640;2023-01-31T01:52:08;101310.94;;;3.01;100.00
46087;BME280;31824;49.648;8.640;2023-01-31T01:55:20;101314.84;;;2.92;100.00
46087;BME280;31824;49.648;8.640;2023-01-31T01:58:26;101317.22;;;3.09;100.00
46087;BME280;31824;49.648;8.640;2023-01-31T02:01:33;101321.91;;;3.12;100.00
46087;BME280;31824;49.648;8.640;2023-01-31T02:04:43;101321.53;;;3.03;100.00
46087;BME280;31824;49.648;8.640;2023-01-31T02:07:46;101319.41;;;3.06;100.00
46087;BME280;31824;49.648;8.640;2023-01-31T02:10:52;101318.81;;;3.14;100.00
46087;BME280;31824;49.648;8.640;2023-01-31T02:14:00;101321.44;;;3.09;100.00
46087;BME280;31824;49.648;8.640;2023-01-31T02:17:02;101317.00;;;3.08;100.00
46087;BME280;31824;49.648;8.640;2023-01-31T02:24:00;101316.91;;;3.13;100.00
46087;BME280;31824;49.648;8.640;2023-01-31T02:27:26;101323.53;;;3.11;100.00
46087;BME280;31824;49.648;8.640;2023-01-31T02:30:41;101326.72;;;3.03;100.00
46087;BME280;31824;49.648;8.640;2023-01-31T02:33:57;101333.88;;;3.17;100.00
46087;BME280;31824;49.648;8.640;2023-01-31T02:37:12;101329.31;;;3.03;100.00
46087;BME280;31824;49.648;8.640;2023-01-31T02:40:21;101323.22;;;3.02;100.00
46087;BME280;31824;49.648;8.640;2023-01-31T02:43:34;101314.63;;;2.91;100.00
46087;BME280;31824;49.648;8.640;2023-01-31T02:46:59;101323.66;;;2.87;100.00
46087;BME280;31824;49.648;8.640;2023-01-31T02:50:10;101316.97;;;2.76;100.00
46087;BME280;31824;49.648;8.640;2023-01-31T02:53:19;101312.06;;;2.72;100.00
46087;BME280;31824;49.648;8.640;2023-01-31T02:56:26;101317.16;;;2.59;100.00
46087;BME280;31824;49.648;8.640;2023-01-31T02:59:31;101310.22;;;2.47;100.00
46087;BME280;31824;49.648;8.640;2023-01-31T03:02:33;101312.97;;;2.35;100.00
46087;BME280;31824;49.648;8.640;2023-01-31T03:05:37;101312.72;;;2.15;100.00
46087;BME280;31824;49.648;8.640;2023-01-31T03:08:41;101319.94;;;1.99;100.00
46087;BME280;31824;49.648;8.640;2023-01-31T03:11:49;101310.28;;;1.98;100.00
46087;BME280;31824;49.648;8.640;2023-01-31T03:15:02;101323.22;;;1.98;100.00
46087;BME280;31824;49.648;8.640;2023-01-31T03:18:09;101326.88;;;1.88;100.00
46087;BME280;31824;49.648;8.640;2023-01-31T03:21:18;101331.72;;;1.73;100.00
46087;BME280;31824;49.648;8.640;2023-01-31T03:24:23;101336.97;;;1.67;100.00
46087;BME280;31824;49.648;8.640;2023-01-31T03:27:27;101338.91;;;1.57;100.00
46087;BME280;31824;49.648;8.640;2023-01-31T03:30:34;101342.50;;;1.46;100.00
46087;BME280;31824;49.648;8.640;2023-01-31T03:33:39;101345.31;;;1.48;100.00
46087;BME280;31824;49.648;8.640;2023-01-31T03:36:50;101349.69;;;1.60;100.00
46087;BME280;31824;49.648;8.640;2023-01-31T03:40:20;101336.84;;;1.49;100.00
46087;BME280;31824;49.648;8.640;2023-01-31T03:43:27;101350.38;;;1.35;100.00
46087;BME280;31824;49.648;8.640;2023-01-31T03:46:36;101360.03;;;1.30;100.00
46087;BME280;31824;49.648;8.640;2023-01-31T03:49:42;101361.88;;;1.37;100.00
46087;BME280;31824;49.648;8.640;2023-01-31T03:52:51;101368.31;;;1.22;100.00
46087;BME280;31824;49.648;8.640;2023-01-31T03:55:58;101358.47;;;1.14;100.00
46087;BME280;31824;49.648;8.640;2023-01-31T03:59:07;101364.03;;;1.34;100.00
46087;BME280;31824;49.648;8.640;2023-01-31T04:02:13;101362.88;;;1.32;100.00
46087;BME280;31824;49.648;8.640;2023-01-31T04:05:20;101353.31;;;1.14;100.00
46087;BME280;31824;49.648;8.640;2023-01-31T04:08:29;101359.53;;;1.33;100.00
46087;BME280;31824;49.648;8.640;2023-01-31T04:11:37;101358.75;;;1.10;100.00
46087;BME280;31824;49.648;8.640;2023-01-31T04:14:40;101356.66;;;1.01;100.00
46087;BME280;31824;49.648;8.640;2023-01-31T04:17:42;101352.19;;;1.00;100.00
46087;BME280;31824;49.648;8.640;2023-01-31T04:20:44;101365.13;;;1.00;100.00
46087;BME280;31824;49.648;8.640;2023-01-31T04:23:47;101366.66;;;0.87;100.00
46087;BME280;31824;49.648;8.640;2023-01-31T04:26:49;101367.53;;;0.93;100.00
46087;BME280;31824;49.648;8.640;2023-01-31T04:29:51;101359.56;;;0.92;100.00
46087;BME280;31824;49.648;8.640;2023-01-31T04:32:53;101359.97;;;1.06;100.00
46087;BME280;31824;49.648;8.640;2023-01-31T04:35:54;101353.34;;;1.08;100.00
46087;BME280;31824;49.648;8.640;2023-01-31T04:38:57;101356.00;;;0.97;100.00
46087;BME280;31824;49.648;8.640;2023-01-31T04:42:01;101343.34;;;0.87;100.00
46087;BME280;31824;49.648;8.640;2023-01-31T04:45:03;101337.41;;;0.94;100.00
46087;BME280;31824;49.648;8.640;2023-01-31T04:48:05;101346.81;;;0.99;100.00
46087;BME280;31824;49.648;8.640;2023-01-31T04:51:08;101352.78;;;0.81;100.00
46087;BME280;31824;49.648;8.640;2023-01-31T04:54:11;101353.22;;;0.84;100.00
46087;BME280;31824;49.648;8.640;2023-01-31T04:57:13;101352.59;;;0.74;100.00
46087;BME280;31824;49.648;8.640;2023-01-31T05:00:15;101333.03;;;0.76;100.00
46087;BME280;31824;49.648;8.640;2023-01-31T05:03:17;101333.47;;;0.79;100.00
46087;BME280;31824;49.648;8.640;2023-01-31T05:06:19;101327.66;;;0.74;100.00
46087;BME280;31824;49.648;8.640;2023-01-31T05:09:22;101338.75;;;0.62;100.00
46087;BME280;31824;49.648;8.640;2023-01-31T05:12:25;101334.59;;;0.40;100.00
46087;BME280;31824;49.648;8.640;2023-01-31T05:15:28;101335.28;;;0.44;100.00
46087;BME280;31824;49.648;8.640;2023-01-31T05:18:30;101341.59;;;0.58;100.00
46087;BME280;31824;49.648;8.640;2023-01-31T05:21:33;101342.78;;;0.48;100.00
46087;BME280;31824;49.648;8.640;2023-01-31T05:24:56;101335.25;;;0.50;100.00
46087;BME280;31824;49.648;8.640;2023-01-31T05:27:59;101323.53;;;0.41;100.00
46087;BME280;31824;49.648;8.640;2023-01-31T05:31:03;101333.19;;;0.36;100.00
46087;BME280;31824;49.648;8.640;2023-01-31T05:34:05;101331.53;;;0.42;100.00
46087;BME280;31824;49.648;8.640;2023-01-31T05:37:08;101337.31;;;0.70;100.00
46087;BME280;31824;49.648;8.640;2023-01-31T05:40:13;101338.69;;;0.73;100.00
46087;BME280;31824;49.648;8.640;2023-01-31T05:43:15;101327.59;;;0.80;100.00
46087;BME280;31824;49.648;8.640;2023-01-31T05:46:17;101330.72;;;0.72;100.00
46087;BME280;31824;49.648;8.640;2023-01-31T05:49:19;101325.06;;;0.74;100.00
46087;BME280;31824;49.648;8.640;2023-01-31T05:52:20;101328.53;;;0.86;100.00
46087;BME280;31824;49.648;8.640;2023-01-31T05:55:24;101327.09;;;0.88;100.00
46087;BME280;31824;49.648;8.640;2023-01-31T05:58:26;101329.34;;;0.68;100.00
46087;BME280;31824;49.648;8.640;2023-01-31T06:01:28;101334.25;;;0.72;100.00
46087;BME280;31824;49.648;8.640;2023-01-31T06:04:30;101321.25;;;0.83;100.00
46087;BME280;31824;49.648;8.640;2023-01-31T06:07:32;101326.69;;;0.79;100.00
46087;BME280;31824;49.648;8.640;2023-01-31T06:10:36;101338.84;;;0.92;100.00
46087;BME280;31824;49.648;8.640;2023-01-31T06:13:38;101346.50;;;1.09;100.00
46087;BME280;31824;49.648;8.640;2023-01-31T06:16:40;101343.84;;;1.26;100.00
46087;BME280;31824;49.648;8.640;2023-01-31T06:19:42;101342.88;;;1.31;100.00
46087;BME280;31824;49.648;8.640;2023-01-31T06:22:44;101350.09;;;1.39;100.00
46087;BME280;31824;49.648;8.640;2023-01-31T06:25:49;101343.25;;;1.40;100.00
46087;BME280;31824;49.648;8.640;2023-01-31T06:28:51;101336.19;;;1.44;100.00
46087;BME280;31824;49.648;8.640;2023-01-31T06:31:52;101336.81;;;1.55;100.00
46087;BME280;31824;49.648;8.640;2023-01-31T06:34:54;101331.84;;;1.56;100.00
46087;BME280;31824;49.648;8.640;2023-01-31T06:37:56;101338.91;;;1.57;100.00
46087;BME280;31824;49.648;8.640;2023-01-31T06:41:00;101340.53;;;1.62;100.00
46087;BME280;31824;49.648;8.640;2023-01-31T06:44:01;101327.56;;;1.62;100.00
46087;BME280;31824;49.648;8.640;2023-01-31T06:47:03;101342.63;;;1.65;100.00
46087;BME280;31824;49.648;8.640;2023-01-31T06:50:05;101342.41;;;1.63;100.00
46087;BME280;31824;49.648;8.640;2023-01-31T06:53:07;101340.47;;;1.68;100.00
46087;BME280;31824;49.648;8.640;2023-01-31T06:56:11;101339.53;;;1.67;100.00
46087;BME280;31824;49.648;8.640;2023-01-31T06:59:13;101333.63;;;1.68;100.00
46087;BME280;31824;49.648;8.640;2023-01-31T07:02:14;101340.25;;;1.66;100.00
46087;BME280;31824;49.648;8.640;2023-01-31T07:05:17;101345.88;;;1.69;100.00
46087;BME280;31824;49.648;8.640;2023-01-31T07:08:19;101344.72;;;1.67;100.00
46087;BME280;31824;49.648;8.640;2023-01-31T07:11:22;101353.69;;;1.64;100.00
46087;BME280;31824;49.648;8.640;2023-01-31T07:14:24;101363.78;;;1.68;100.00
46087;BME280;31824;49.648;8.640;2023-01-31T07:17:25;101354.81;;;1.72;100.00
46087;BME280;31824;49.648;8.640;2023-01-31T07:20:27;101368.97;;;1.68;100.00
46087;BME280;31824;49.648;8.640;2023-01-31T07:23:29;101378.63;;;1.69;100.00
46087;BME280;31824;49.648;8.640;2023-01-31T07:26:33;101384.03;;;1.71;100.00
46087;BME280;31824;49.648;8.640;2023-01-31T07:29:35;101393.19;;;1.68;100.00
46087;BME280;31824;49.648;8.640;2023-01-31T07:32:38;101396.97;;;1.71;100.00
46087;BME280;31824;49.648;8.640;2023-01-31T07:35:40;101390.59;;;1.74;100.00
46087;BME280;31824;49.648;8.640;2023-01-31T07:38:42;101391.31;;;1.73;100.00
46087;BME280;31824;49.648;8.640;2023-01-31T07:41:45;101388.00;;;1.74;100.00
46087;BME280;31824;49.648;8.640;2023-01-31T07:44:47;101391.53;;;1.75;100.00
46087;BME280;31824;49.648;8.640;2023-01-31T07:47:49;101391.53;;;1.75;100.00
46087;BME280;31824;49.648;8.640;2023-01-31T07:50:52;101392.72;;;1.71;100.00
46087;BME280;31824;49.648;8.640;2023-01-31T07:53:55;101396.72;;;1.75;100.00
46087;BME280;31824;49.648;8.640;2023-01-31T07:56:58;101399.94;;;1.79;100.00
46087;BME280;31824;49.648;8.640;2023-01-31T08:00:00;101410.31;;;1.85;100.00
46087;BME280;31824;49.648;8.640;2023-01-31T08:03:23;101415.72;;;1.81;100.00
46087;BME280;31824;49.648;8.640;2023-01-31T08:06:35;101420.91;;;1.81;100.00
46087;BME280;31824;49.648;8.640;2023-01-31T08:09:37;101402.97;;;1.88;100.00
46087;BME280;31824;49.648;8.640;2023-01-31T08:12:41;101414.94;;;1.93;100.00
46087;BME280;31824;49.648;8.640;2023-01-31T08:15:42;101413.50;;;1.95;100.00
46087;BME280;31824;49.648;8.640;2023-01-31T08:18:44;101410.47;;;1.92;100.00
46087;BME280;31824;49.648;8.640;2023-01-31T08:21:47;101409.44;;;2.03;100.00
46087;BME280;31824;49.648;8.640;2023-01-31T08:24:48;101405.25;;;1.98;100.00
46087;BME280;31824;49.648;8.640;2023-01-31T08:27:51;101391.72;;;2.06;100.00
46087;BME280;31824;49.648;8.640;2023-01-31T08:30:53;101393.06;;;2.15;100.00
46087;BME280;31824;49.648;8.640;2023-01-31T08:34:09;101399.41;;;2.17;100.00
46087;BME280;31824;49.648;8.640;2023-01-31T08:37:29;101384.53;;;2.22;100.00
46087;BME280;31824;49.648;8.640;2023-01-31T08:40:33;101389.22;;;2.25;100.00
46087;BME280;31824;49.648;8.640;2023-01-31T08:43:36;101394.84;;;2.28;100.00
46087;BME280;31824;49.648;8.640;2023-01-31T08:46:56;101399.25;;;2.34;100.00
46087;BME280;31824;49.648;8.640;2023-01-31T08:50:01;101387.06;;;2.28;100.00
46087;BME280;31824;49.648;8.640;2023-01-31T08:53:03;101393.38;;;2.30;100.00
46087;BME280;31824;49.648;8.640;2023-01-31T08:56:07;101388.66;;;2.33;100.00
46087;BME280;31824;49.648;8.640;2023-01-31T08:59:11;101382.38;;;2.49;100.00
46087;BME280;31824;49.648;8.640;2023-01-31T09:02:12;101375.50;;;2.50;100.00
46087;BME280;31824;49.648;8.640;2023-01-31T09:05:15;101379.34;;;2.46;100.00
46087;BME280;31824;49.648;8.640;2023-01-31T09:08:17;101400.88;;;2.40;100.00
46087;BME280;31824;49.648;8.640;2023-01-31T09:11:18;101398.53;;;2.35;100.00
46087;BME280;31824;49.648;8.640;2023-01-31T09:14:22;101404.66;;;2.36;100.00
46087;BME280;31824;49.648;8.640;2023-01-31T09:22:34;101393.38;;;2.54;100.00
46087;BME280;31824;49.648;8.640;2023-01-31T09:25:36;101384.47;;;2.52;100.00
46087;BME280;31824;49.648;8.640;2023-01-31T09:28:48;101381.88;;;2.52;100.00
46087;BME280;31824;49.648;8.640;2023-01-31T09:31:51;101373.69;;;2.43;100.00
46087;BME280;31824;49.648;8.640;2023-01-31T09:34:53;101369.97;;;2.60;100.00
46087;BME280;31824;49.648;8.640;2023-01-31T09:37:57;101367.75;;;2.68;100.00
46087;BME280;31824;49.648;8.640;2023-01-31T09:41:02;101367.56;;;2.67;100.00
46087;BME280;31824;49.648;8.640;2023-01-31T09:44:04;101367.56;;;2.67;100.00
46087;BME280;31824;49.648;8.640;2023-01-31T09:47:09;101372.25;;;2.69;100.00
46087;BME280;31824;49.648;8.640;2023-01-31T09:50:18;101373.94;;;2.63;100.00
46087;BME280;31824;49.648;8.640;2023-01-31T09:53:24;101384.19;;;2.75;100.00
46087;BME280;31824;49.648;8.640;2023-01-31T09:56:34;101383.75;;;2.72;100.00
46087;BME280;31824;49.648;8.640;2023-01-31T09:59:47;101394.28;;;2.79;100.00
46087;BME280;31824;49.648;8.640;2023-01-31T10:03:03;101392.56;;;2.85;100.00
46087;BME280;31824;49.648;8.640;2023-01-31T10:06:18;101393.59;;;2.98;100.00
46087;BME280;31824;49.648;8.640;2023-01-31T10:09:27;101389.03;;;3.03;100.00
46087;BME280;31824;49.648;8.640;2023-01-31T10:12:33;101389.63;;;3.13;100.00
46087;BME280;31824;49.648;8.640;2023-01-31T10:15:42;101378.22;;;3.18;100.00
46087;BME280;31824;49.648;8.640;2023-01-31T10:18:48;101363.88;;;3.15;100.00
46087;BME280;31824;49.648;8.640;2023-01-31T10:21:54;101357.88;;;3.21;100.00
46087;BME280;31824;49.648;8.640;2023-01-31T10:25:05;101337.81;;;3.20;100.00
46087;BME280;31824;49.648;8.640;2023-01-31T10:28:11;101342.22;;;3.09;100.00
46087;BME280;31824;49.648;8.640;2023-01-31T10:31:24;101352.31;;;3.13;100.00
46087;BME280;31824;49.648;8.640;2023-01-31T10:34:31;101359.16;;;3.31;100.00
46087;BME280;31824;49.648;8.640;2023-01-31T10:37:38;101352.78;;;3.47;100.00
46087;BME280;31824;49.648;8.640;2023-01-31T10:40:48;101341.50;;;3.72;100.00
46087;BME280;31824;49.648;8.640;2023-01-31T10:43:58;101331.03;;;3.91;100.00
46087;BME280;31824;49.648;8.640;2023-01-31T10:47:01;101333.00;;;3.86;100.00
46087;BME280;31824;49.648;8.640;2023-01-31T10:50:12;101344.84;;;3.84;100.00
46087;BME280;31824;49.648;8.640;2023-01-31T10:53:34;101349.34;;;3.85;100.00
46087;BME280;31824;49.648;8.640;2023-01-31T10:56:44;101349.84;;;3.83;100.00
46087;BME280;31824;49.648;8.640;2023-01-31T10:59:48;101348.91;;;3.82;100.00
46087;BME280;31824;49.648;8.640;2023-01-31T11:02:50;101352.25;;;3.81;100.00
46087;BME280;31824;49.648;8.640;2023-01-31T11:05:54;101357.84;;;3.84;100.00
46087;BME280;31824;49.648;8.640;2023-01-31T11:08:58;101338.00;;;3.85;100.00
46087;BME280;31824;49.648;8.640;2023-01-31T11:12:05;101306.72;;;3.91;100.00
46087;BME280;31824;49.648;8.640;2023-01-31T11:15:15;101290.69;;;4.00;100.00
46087;BME280;31824;49.648;8.640;2023-01-31T11:18:26;101287.56;;;4.03;100.00
46087;BME280;31824;49.648;8.640;2023-01-31T11:21:31;101284.78;;;4.01;100.00
46087;BME280;31824;49.648;8.640;2023-01-31T11:24:36;101256.25;;;4.09;100.00
46087;BME280;31824;49.648;8.640;2023-01-31T11:27:41;101255.53;;;4.10;100.00
46087;BME280;31824;49.648;8.640;2023-01-31T11:30:46;101283.19;;;4.09;100.00
46087;BME280;31824;49.648;8.640;2023-01-31T11:33:55;101274.88;;;4.12;100.00
46087;BME280;31824;49.648;8.640;2023-01-31T11:37:05;101277.25;;;4.10;100.00
46087;BME280;31824;49.648;8.640;2023-01-31T11:40:19;101248.75;;;4.17;100.00
46087;BME280;31824;49.648;8.640;2023-01-31T11:43:26;101241.06;;;4.25;100.00
46087;BME280;31824;49.648;8.640;2023-01-31T11:46:42;101223.69;;;4.18;100.00
46087;BME280;31824;49.648;8.640;2023-01-31T11:49:47;101222.97;;;4.19;100.00
46087;BME280;31824;49.648;8.640;2023-01-31T11:52:55;101217.22;;;4.21;100.00
46087;BME280;31824;49.648;8.640;2023-01-31T11:56:10;101212.66;;;4.26;100.00
46087;BME280;31824;49.648;8.640;2023-01-31T11:59:18;101218.25;;;4.29;100.00
46087;BME280;31824;49.648;8.640;2023-01-31T12:02:34;101212.00;;;4.34;100.00
46087;BME280;31824;49.648;8.640;2023-01-31T12:05:39;101200.44;;;4.32;100.00
46087;BME280;31824;49.648;8.640;2023-01-31T12:08:42;101201.41;;;4.33;100.00
46087;BME280;31824;49.648;8.640;2023-01-31T12:11:49;101217.19;;;4.34;100.00
46087;BME280;31824;49.648;8.640;2023-01-31T12:14:54;101206.06;;;4.35;100.00
46087;BME280;31824;49.648;8.640;2023-01-31T12:17:59;101193.78;;;4.34;100.00
46087;BME280;31824;49.648;8.640;2023-01-31T12:21:06;101184.84;;;4.32;100.00
46087;BME280;31824;49.648;8.640;2023-01-31T12:24:20;101182.66;;;4.35;100.00
46087;BME280;31824;49.648;8.640;2023-01-31T12:27:38;101177.03;;;4.32;100.00
46087;BME280;31824;49.648;8.640;2023-01-31T12:31:05;101187.03;;;4.29;100.00
46087;BME280;31824;49.648;8.640;2023-01-31T12:34:24;101186.84;;;4.28;100.00
46087;BME280;31824;49.648;8.640;2023-01-31T12:37:38;101186.31;;;4.30;100.00
46087;BME280;31824;49.648;8.640;2023-01-31T12:40:46;101191.84;;;4.26;100.00
46087;BME280;31824;49.648;8.640;2023-01-31T12:44:02;101176.75;;;4.23;100.00
46087;BME280;31824;49.648;8.640;2023-01-31T12:50:44;101139.16;;;4.34;100.00
46087;BME280;31824;49.648;8.640;2023-01-31T12:53:54;101147.81;;;4.28;100.00
46087;BME280;31824;49.648;8.640;2023-01-31T12:57:06;101152.44;;;4.23;100.00
46087;BME280;31824;49.648;8.640;2023-01-31T13:00:26;101139.19;;;4.21;100.00
46087;BME280;31824;49.648;8.640;2023-01-31T13:03:37;101133.38;;;4.17;100.00
46087;BME280;31824;49.648;8.640;2023-01-31T13:06:47;101114.34;;;4.11;100.00
46087;BME280;31824;49.648;8.640;2023-01-31T13:09:53;101102.13;;;4.10;100.00
46087;BME280;31824;49.648;8.640;2023-01-31T13:12:56;101113.63;;;4.12;100.00
46087;BME280;31824;49.648;8.640;2023-01-31T13:16:01;101124.75;;;4.11;100.00
46087;BME280;31824;49.648;8.640;2023-01-31T13:19:12;101115.63;;;4.07;100.00
46087;BME280;31824;49.648;8.640;2023-01-31T13:22:19;101092.75;;;4.04;100.00
46087;BME280;31824;49.648;8.640;2023-01-31T13:25:24;101106.69;;;4.05;100.00
46087;BME280;31824;49.648;8.640;2023-01-31T13:28:33;101089.44;;;4.05;100.00
46087;BME280;31824;49.648;8.640;2023-01-31T13:31:42;101093.69;;;4.05;100.00
46087;BME280;31824;49.648;8.640;2023-01-31T13:34:49;101098.50;;;4.02;100.00
46087;BME280;31824;49.648;8.640;2023-01-31T13:37:59;101097.44;;;4.07;100.00
46087;BME280;31824;49.648;8.640;2023-01-31T13:41:02;101096.47;;;4.06;100.00
46087;BME280;31824;49.648;8.640;2023-01-31T13:44:05;101093.28;;;4.02;100.00
46087;BME280;31824;49.648;8.640;2023-01-31T13:47:15;101074.88;;;4.00;100.00
46087;BME280;31824;49.648;8.640;2023-01-31T13:50:30;101075.41;;;3.98;100.00
46087;BME280;31824;49.648;8.640;2023-01-31T13:53:36;101075.41;;;3.98;100.00
46087;BME280;31824;49.648;8.640;2023-01-31T13:56:47;101080.41;;;3.96;100.00
46087;BME280;31824;49.648;8.640;2023-01-31T13:59:52;101083.22;;;3.98;100.00
46087;BME280;31824;49.648;8.640;2023-01-31T14:02:59;101082.28;;;3.97;100.00
46087;BME280;31824;49.648;8.640;2023-01-31T14:06:03;101076.91;;;3.96;100.00
46087;BME280;31824;49.648;8.640;2023-01-31T14:09:21;101091.13;;;3.92;100.00
46087;BME280;31824;49.648;8.640;2023-01-31T14:12:34;101088.88;;;3.88;100.00
46087;BME280;31824;49.648;8.640;2023-01-31T14:15:46;101081.78;;;3.87;100.00
46087;BME280;31824;49.648;8.640;2023-01-31T14:18:48;101072.88;;;3.85;100.00
46087;BME280;31824;49.648;8.640;2023-01-31T14:21:53;101079.50;;;3.83;100.00
46087;BME280;31824;49.648;8.640;2023-01-31T14:24:57;101087.31;;;3.83;100.00
46087;BME280;31824;49.648;8.640;2023-01-31T14:28:02;101088.34;;;3.78;100.00
46087;BME280;31824;49.648;8.640;2023-01-31T14:31:11;101089.09;;;3.77;100.00
46087;BME280;31824;49.648;8.640;2023-01-31T14:34:14;101091.59;;;3.69;100.00
46087;BME280;31824;49.648;8.640;2023-01-31T14:37:29;101100.56;;;3.71;100.00
46087;BME280;31824;49.648;8.640;2023-01-31T14:40:39;101097.94;;;3.71;100.00
46087;BME280;31824;49.648;8.640;2023-01-31T14:43:57;101090.47;;;3.67;100.00
46087;BME280;31824;49.648;8.640;2023-01-31T14:47:55;101105.44;;;3.63;100.00
46087;BME280;31824;49.648;8.640;2023-01-31T14:51:08;101103.28;;;3.53;100.00
46087;BME280;31824;49.648;8.640;2023-01-31T14:54:28;101108.47;;;3.53;100.00
46087;BME280;31824;49.648;8.640;2023-01-31T14:57:39;101115.22;;;3.45;100.00
46087;BME280;31824;49.648;8.640;2023-01-31T15:00:47;101104.34;;;3.35;100.00
46087;BME280;31824;49.648;8.640;2023-01-31T15:03:54;101102.16;;;3.25;100.00
46087;BME280;31824;49.648;8.640;2023-01-31T15:06:59;101102.47;;;3.21;100.00
46087;BME280;31824;49.648;8.640;2023-01-31T15:10:02;101097.16;;;3.14;100.00
46087;BME280;31824;49.648;8.640;2023-01-31T15:13:35;101103.81;;;3.12;100.00
46087;BME280;31824;49.648;8.640;2023-01-31T15:16:38;101105.25;;;3.10;100.00
46087;BME280;31824;49.648;8.640;2023-01-31T15:19:44;101097.78;;;3.06;100.00
46087;BME280;31824;49.648;8.640;2023-01-31T15:22:47;101097.97;;;3.07;100.00
46087;BME280;31824;49.648;8.640;2023-01-31T15:25:51;101108.88;;;3.04;100.00
46087;BME280;31824;49.648;8.640;2023-01-31T15:28:56;101109.31;;;3.08;100.00
46087;BME280;31824;49.648;8.640;2023-01-31T15:33:17;101102.97;;;3.06;100.00
46087;BME280;31824;49.648;8.640;2023-01-31T15:36:26;101097.78;;;3.06;100.00
46087;BME280;31824;49.648;8.640;2023-01-31T15:39:35;101109.31;;;3.08;100.00
46087;BME280;31824;49.648;8.640;2023-01-31T15:42:40;101098.94;;;3.08;100.00
46087;BME280;31824;49.648;8.640;2023-01-31T15:45:43;101109.31;;;3.08;100.00
46087;BME280;31824;49.648;8.640;2023-01-31T15:48:47;101109.50;;;3.09;100.00
46087;BME280;31824;49.648;8.640;2023-01-31T15:52:04;101115.63;;;3.10;100.00
46087;BME280;31824;49.648;8.640;2023-01-31T15:55:12;101117.50;;;3.11;100.00
46087;BME280;31824;49.648;8.640;2023-01-31T15:58:17;101110.13;;;3.14;100.00
46087;BME280;31824;49.648;8.640;2023-01-31T16:01:19;101110.66;;;3.11;100.00
46087;BME280;31824;49.648;8.640;2023-01-31T16:04:22;101115.31;;;3.14;100.00
46087;BME280;31824;49.648;8.640;2023-01-31T16:07:26;101127.91;;;3.11;100.00
46087;BME280;31824;49.648;8.640;2023-01-31T16:10:32;101123.56;;;3.17;100.00
46087;BME280;31824;49.648;8.640;2023-01-31T16:13:36;101123.56;;;3.17;100.00
46087;BME280;31824;49.648;8.640;2023-01-31T16:16:38;101129.16;;;3.20;100.00
46087;BME280;31824;49.648;8.640;2023-01-31T16:19:42;101119.69;;;3.20;100.00
46087;BME280;31824;49.648;8.640;2023-01-31T16:22:54;101114.91;;;3.24;100.00
46087;BME280;31824;49.648;8.640;2023-01-31T16:26:01;101105.88;;;3.27;100.00
46087;BME280;31824;49.648;8.640;2023-01-31T16:29:08;101100.16;;;3.30;100.00